createdAt,value
2022-11-16T00:01:23.966Z,18.55
2022-11-16T00:04:26.826Z,17.53
2022-11-16T00:07:29.312Z,15.02
2022-11-16T00:10:31.889Z,17.08
2022-11-16T00:13:35.926Z,16.73
2022-11-16T00:16:38.999Z,19.02
2022-11-16T00:19:41.494Z,16.10
2022-11-16T00:22:44.130Z,18.42
2022-11-16T00:25:46.845Z,16.98
2022-11-16T00:28:49.885Z,17.40
2022-11-16T00:31:53.838Z,17.75
2022-11-16T00:34:56.580Z,20.27
2022-11-16T00:37:59.072Z,16.58
2022-11-16T00:41:02.106Z,15.50
2022-11-16T00:44:04.698Z,16.92
2022-11-16T00:47:08.374Z,17.80
2022-11-16T00:50:10.786Z,16.00
2022-11-16T00:53:15.009Z,17.52
2022-11-16T00:56:17.718Z,16.23
2022-11-16T00:59:31.914Z,16.55
2022-11-16T01:02:35.255Z,16.95
2022-11-16T01:05:38.582Z,16.63
2022-11-16T01:08:42.583Z,15.77
2022-11-16T01:12:03.629Z,19.95
2022-11-16T01:15:10.280Z,17.05
2022-11-16T01:18:12.823Z,19.00
2022-11-16T01:21:15.364Z,18.07
2022-11-16T01:24:17.964Z,16.70
2022-11-16T01:27:20.604Z,16.30
2022-11-16T01:30:23.247Z,19.13
2022-11-16T01:33:36.719Z,17.90
2022-11-16T01:36:40.397Z,16.67
2022-11-16T01:39:44.101Z,16.73
2022-11-16T01:42:46.820Z,16.50
2022-11-16T01:45:50.424Z,18.38
2022-11-16T01:49:03.436Z,16.45
2022-11-16T01:52:10.453Z,16.33
2022-11-16T01:55:14.658Z,16.60
2022-11-16T01:58:27.189Z,14.85
2022-11-16T02:01:35.940Z,16.50
2022-11-16T02:04:40.452Z,17.73
2022-11-16T02:08:09.797Z,15.87
2022-11-16T02:11:46.146Z,17.15
2022-11-16T02:15:13.663Z,16.35
2022-11-16T02:18:48.069Z,16.42
2022-11-16T02:22:27.062Z,16.23
2022-11-16T02:25:34.801Z,17.87
2022-11-16T02:28:45.956Z,16.02
2022-11-16T02:32:07.789Z,15.98
2022-11-16T02:35:16.936Z,16.65
2022-11-16T02:38:23.865Z,15.38
2022-11-16T02:41:31.741Z,16.37
2022-11-16T02:44:36.995Z,15.77
2022-11-16T02:47:41.822Z,17.00
2022-11-16T02:50:46.866Z,16.38
2022-11-16T02:54:03.243Z,17.83
2022-11-16T02:57:07.084Z,15.17
2022-11-16T03:00:17.009Z,15.60
2022-11-16T03:03:43.156Z,16.92
2022-11-16T03:06:48.766Z,16.85
2022-11-16T03:09:55.505Z,16.38
2022-11-16T03:13:00.795Z,15.97
2022-11-16T03:16:10.191Z,15.02
2022-11-16T03:19:17.241Z,15.45
2022-11-16T03:22:26.889Z,16.35
2022-11-16T03:25:41.035Z,14.65
2022-11-16T03:28:57.582Z,15.53
2022-11-16T03:32:07.094Z,15.68
2022-11-16T03:35:18.566Z,17.00
2022-11-16T03:38:24.634Z,15.93
2022-11-16T03:41:30.033Z,15.57
2022-11-16T03:44:34.376Z,15.07
2022-11-16T03:47:37.542Z,16.45
2022-11-16T03:50:41.168Z,16.58
2022-11-16T03:53:44.779Z,14.68
2022-11-16T03:56:48.407Z,15.02
2022-11-16T03:59:51.323Z,15.33
2022-11-16T04:02:54.184Z,15.35
2022-11-16T04:06:18.753Z,16.02
2022-11-16T04:09:39.964Z,15.43
2022-11-16T04:13:02.543Z,15.90
2022-11-16T04:16:23.833Z,16.47
2022-11-16T04:19:45.439Z,16.70
2022-11-16T04:23:33.161Z,14.90
2022-11-16T04:26:57.237Z,16.00
2022-11-16T04:30:02.146Z,14.23
2022-11-16T04:33:25.017Z,16.03
2022-11-16T04:36:46.683Z,16.23
2022-11-16T04:39:49.422Z,14.48
2022-11-16T04:42:53.639Z,16.00
2022-11-16T04:46:15.175Z,16.70
2022-11-16T04:49:18.960Z,16.73
2022-11-16T04:52:22.701Z,15.25
2022-11-16T04:55:26.831Z,15.07
2022-11-16T04:58:29.472Z,16.73
2022-11-16T05:01:50.624Z,14.80
2022-11-16T05:04:53.159Z,14.57
2022-11-16T05:07:57.184Z,17.13
2022-11-16T05:11:03.622Z,16.20
2022-11-16T05:14:06.543Z,16.38
2022-11-16T05:17:09.742Z,15.65
2022-11-16T05:20:30.994Z,16.20
2022-11-16T05:23:57.224Z,16.15
2022-11-16T05:27:10.645Z,15.15
2022-11-16T05:30:14.307Z,15.23
2022-11-16T05:33:18.667Z,14.95
2022-11-16T05:36:21.428Z,16.80
2022-11-16T05:39:26.043Z,15.65
2022-11-16T05:42:29.785Z,14.98
2022-11-16T05:45:33.434Z,15.98
2022-11-16T05:48:37.298Z,16.40
2022-11-16T05:51:45.325Z,15.27
2022-11-16T05:54:49.684Z,15.82
2022-11-16T05:57:52.275Z,16.98
2022-11-16T06:00:55.220Z,14.75
2022-11-16T06:04:02.013Z,15.85
2022-11-16T06:07:06.240Z,16.80
2022-11-16T06:10:11.034Z,14.65
2022-11-16T06:13:15.432Z,16.27
2022-11-16T06:16:18.520Z,16.83
2022-11-16T06:19:22.116Z,15.27
2022-11-16T06:22:24.999Z,16.27
2022-11-16T06:25:27.830Z,24.17
2022-11-16T06:28:30.926Z,15.48
2022-11-16T06:31:34.321Z,15.85
2022-11-16T06:34:38.528Z,14.75
2022-11-16T06:37:41.125Z,13.60
2022-11-16T06:40:45.063Z,14.57
2022-11-16T06:43:48.260Z,14.85
2022-11-16T06:46:54.181Z,16.23
2022-11-16T06:49:57.221Z,16.58
2022-11-16T06:53:01.043Z,15.03
2022-11-16T06:56:06.134Z,14.02
2022-11-16T06:59:14.369Z,16.15
2022-11-16T07:02:22.614Z,19.42
2022-11-16T07:05:25.926Z,16.17
2022-11-16T07:08:30.652Z,15.67
2022-11-16T07:11:34.763Z,17.10
2022-11-16T07:14:37.739Z,15.60
2022-11-16T07:17:42.979Z,14.98
2022-11-16T07:20:45.687Z,14.10
2022-11-16T07:23:48.574Z,14.40
2022-11-16T07:26:55.356Z,15.75
2022-11-16T07:30:02.324Z,14.70
2022-11-16T07:33:14.080Z,15.10
2022-11-16T07:36:45.740Z,15.02
2022-11-16T07:39:49.251Z,16.17
2022-11-16T07:42:51.998Z,15.02
2022-11-16T07:46:46.565Z,15.60
2022-11-16T07:49:38.208Z,16.25
2022-11-16T07:52:47.443Z,16.92
2022-11-16T07:55:55.332Z,14.97
2022-11-16T07:58:59.798Z,13.05
2022-11-16T08:02:03.985Z,16.40
2022-11-16T08:05:07.808Z,15.35
2022-11-16T08:08:15.355Z,16.58
2022-11-16T08:11:19.118Z,15.87
2022-11-16T08:14:24.319Z,13.45
2022-11-16T08:17:31.257Z,16.23
2022-11-16T08:20:36.670Z,15.43
2022-11-16T08:23:40.558Z,15.45
2022-11-16T08:26:43.806Z,15.43
2022-11-16T08:29:52.152Z,13.90
2022-11-16T08:32:55.120Z,15.93
2022-11-16T08:35:58.847Z,17.42
2022-11-16T08:39:01.930Z,17.08
2022-11-16T08:42:09.827Z,14.73
2022-11-16T08:45:13.861Z,16.85
2022-11-16T08:48:17.564Z,14.95
2022-11-16T08:51:21.183Z,15.90
2022-11-16T08:54:34.219Z,16.27
2022-11-16T08:57:37.932Z,15.70
2022-11-16T09:00:45.063Z,14.98
2022-11-16T09:03:47.733Z,16.75
2022-11-16T09:06:53.045Z,14.55
2022-11-16T09:09:56.724Z,15.15
2022-11-16T09:12:59.301Z,16.73
2022-11-16T09:16:02.446Z,16.30
2022-11-16T09:19:05.185Z,16.75
2022-11-16T09:22:07.781Z,16.63
2022-11-16T09:25:15.409Z,15.93
2022-11-16T09:28:19.794Z,15.97
2022-11-16T09:31:23.765Z,17.25
2022-11-16T09:34:29.576Z,15.38
2022-11-16T09:37:32.179Z,15.77
2022-11-16T09:40:38.163Z,16.38
2022-11-16T09:44:16.547Z,14.73
2022-11-16T09:48:02.524Z,15.05
2022-11-16T09:51:16.347Z,19.60
2022-11-16T09:54:26.287Z,18.40
2022-11-16T09:57:37.658Z,15.52
2022-11-16T10:01:25.924Z,18.33
2022-11-16T10:04:30.300Z,18.90
2022-11-16T10:07:41.880Z,19.13
2022-11-16T10:11:05.143Z,19.38
2022-11-16T10:14:30.022Z,18.23
2022-11-16T10:18:03.596Z,18.77
2022-11-16T10:21:44.887Z,16.77
2022-11-16T10:25:02.706Z,18.33
2022-11-16T10:28:14.941Z,16.55
2022-11-16T10:31:51.605Z,15.10
2022-11-16T10:35:00.400Z,17.43
2022-11-16T10:38:12.105Z,14.52
2022-11-16T10:41:43.604Z,16.55
2022-11-16T10:45:20.805Z,15.90
2022-11-16T10:49:01.932Z,17.48
2022-11-16T10:52:04.764Z,17.53
2022-11-16T10:55:07.737Z,17.30
2022-11-16T10:58:10.344Z,17.20
2022-11-16T11:01:41.467Z,18.08
2022-11-16T11:05:17.449Z,20.45
2022-11-16T11:08:34.568Z,16.87
2022-11-16T11:11:57.351Z,19.50
2022-11-16T11:15:13.345Z,19.92
2022-11-16T11:18:22.586Z,20.02
2022-11-16T11:21:27.213Z,18.40
2022-11-16T11:24:48.002Z,18.27
2022-11-16T11:27:52.572Z,17.45
2022-11-16T11:31:22.720Z,18.08
2022-11-16T11:34:29.659Z,17.52
2022-11-16T11:37:41.176Z,15.60
2022-11-16T11:40:58.068Z,17.70
2022-11-16T11:44:21.921Z,19.38
2022-11-16T11:48:03.009Z,16.48
2022-11-16T11:51:05.602Z,20.73
2022-11-16T11:54:25.795Z,22.13
2022-11-16T11:57:28.613Z,16.67
2022-11-16T12:00:44.602Z,17.80
2022-11-16T12:03:56.407Z,20.85
2022-11-16T12:07:20.223Z,18.85
2022-11-16T12:11:05.044Z,18.50
2022-11-16T12:14:13.399Z,19.00
2022-11-16T12:17:31.451Z,23.35
2022-11-16T12:21:05.707Z,18.35
2022-11-16T12:24:20.446Z,21.55
2022-11-16T12:27:37.263Z,19.15
2022-11-16T12:31:09.567Z,18.20
2022-11-16T12:34:58.356Z,18.63
2022-11-16T12:38:30.737Z,14.60
2022-11-16T12:42:06.174Z,19.35
2022-11-16T12:45:35.250Z,18.10
2022-11-16T12:48:57.041Z,17.57
2022-11-16T12:52:09.350Z,20.00
2022-11-16T12:55:40.255Z,19.90
2022-11-16T12:59:23.965Z,17.98
2022-11-16T13:02:45.408Z,20.63
2022-11-16T13:06:09.581Z,17.47
2022-11-16T13:09:32.758Z,18.35
2022-11-16T13:12:36.878Z,24.95
2022-11-16T13:15:41.590Z,16.52
2022-11-16T13:18:44.875Z,20.33
2022-11-16T13:22:10.633Z,19.17
2022-11-16T13:25:22.691Z,17.02
2022-11-16T13:28:37.506Z,16.85
2022-11-16T13:31:53.355Z,18.80
2022-11-16T13:34:59.217Z,19.05
2022-11-16T13:38:01.963Z,15.63
2022-11-16T13:41:37.507Z,16.73
2022-11-16T13:44:40.191Z,19.52
2022-11-16T13:47:50.708Z,20.13
2022-11-16T13:50:56.208Z,16.50
2022-11-16T13:57:24.642Z,16.23
2022-11-16T14:00:33.663Z,17.33
2022-11-16T14:03:40.316Z,19.58
2022-11-16T14:06:42.936Z,17.75
2022-11-16T14:09:48.141Z,16.60
2022-11-16T14:12:52.964Z,15.35
2022-11-16T14:16:15.118Z,15.75
2022-11-16T14:19:52.029Z,18.05
2022-11-16T14:23:11.400Z,18.00
2022-11-16T14:26:25.488Z,19.20
2022-11-16T14:29:50.103Z,16.98
2022-11-16T14:32:55.309Z,15.75
2022-11-16T14:36:06.369Z,17.30
2022-11-16T14:39:27.303Z,20.58
2022-11-16T14:42:54.327Z,16.73
2022-11-16T14:46:16.065Z,17.40
2022-11-16T14:49:20.534Z,19.48
2022-11-16T14:52:39.322Z,17.02
2022-11-16T14:55:44.298Z,16.70
2022-11-16T14:58:55.219Z,18.03
2022-11-16T15:01:59.617Z,17.63
2022-11-16T15:05:02.677Z,15.95
2022-11-16T15:08:17.291Z,14.18
2022-11-16T15:11:56.592Z,18.50
2022-11-16T15:15:07.413Z,18.80
2022-11-16T15:18:14.943Z,20.67
2022-11-16T15:21:23.733Z,16.90
2022-11-16T15:24:34.520Z,18.08
2022-11-16T15:27:39.452Z,18.85
2022-11-16T15:30:46.435Z,20.73
2022-11-16T15:33:51.272Z,16.13
2022-11-16T15:36:53.803Z,20.35
2022-11-16T15:40:00.791Z,17.70
2022-11-16T15:43:06.106Z,18.90
2022-11-16T15:46:09.020Z,18.07
2022-11-16T15:49:34.483Z,18.42
2022-11-16T15:52:55.594Z,17.40
2022-11-16T15:55:58.330Z,16.08
2022-11-16T15:59:10.079Z,17.83
2022-11-16T16:02:19.209Z,16.80
2022-11-16T16:05:39.892Z,18.52
2022-11-16T16:08:42.623Z,18.38
2022-11-16T16:11:45.938Z,17.92
2022-11-16T16:14:50.196Z,17.80
2022-11-16T16:17:57.909Z,15.90
2022-11-16T16:21:02.441Z,16.92
2022-11-16T16:24:08.171Z,20.13
2022-11-16T16:27:19.430Z,57.15
2022-11-16T16:30:28.383Z,101.78
2022-11-16T16:33:31.539Z,87.10
2022-11-16T16:36:34.523Z,67.60
2022-11-16T16:39:39.021Z,71.55
2022-11-16T16:42:43.046Z,60.30
2022-11-16T16:45:45.806Z,65.00
2022-11-16T16:48:48.788Z,62.83
2022-11-16T16:51:51.731Z,43.83
2022-11-16T16:54:55.003Z,34.75
2022-11-16T16:57:59.483Z,38.03
2022-11-16T17:01:05.219Z,30.88
2022-11-16T17:04:07.930Z,45.13
2022-11-16T17:07:10.865Z,34.10
2022-11-16T17:10:13.652Z,30.15
2022-11-16T17:13:16.409Z,34.72
2022-11-16T17:16:20.934Z,34.17
2022-11-16T17:19:23.768Z,37.83
2022-11-16T17:22:26.460Z,30.45
2022-11-16T17:25:30.519Z,26.52
2022-11-16T17:28:33.892Z,31.58
2022-11-16T17:31:37.035Z,30.55
2022-11-16T17:34:41.910Z,35.93
2022-11-16T17:37:44.686Z,29.45
2022-11-16T17:40:48.538Z,26.80
2022-11-16T17:43:53.928Z,29.90
2022-11-16T17:46:56.861Z,34.78
2022-11-16T17:50:01.690Z,31.97
2022-11-16T17:53:04.435Z,33.60
2022-11-16T17:56:08.186Z,27.23
2022-11-16T17:59:11.369Z,26.95
2022-11-16T18:02:14.488Z,27.08
2022-11-16T18:05:17.354Z,25.33
2022-11-16T18:08:20.832Z,27.23
2022-11-16T18:11:26.338Z,24.25
2022-11-16T18:14:29.026Z,32.78
2022-11-16T18:17:31.732Z,24.95
2022-11-16T18:20:38.373Z,23.60
2022-11-16T18:23:41.927Z,24.27
2022-11-16T18:26:44.675Z,24.33
2022-11-16T18:29:48.451Z,25.77
2022-11-16T18:32:52.004Z,19.80
2022-11-16T18:35:55.138Z,25.17
2022-11-16T18:38:58.159Z,25.55
2022-11-16T18:42:00.942Z,26.70
2022-11-16T18:45:03.620Z,23.85
2022-11-16T18:48:06.670Z,21.27
2022-11-16T18:51:11.837Z,23.33
2022-11-16T18:54:15.117Z,23.20
2022-11-16T18:57:18.019Z,21.88
2022-11-16T19:00:21.661Z,20.45
2022-11-16T19:03:24.547Z,21.17
2022-11-16T19:06:27.568Z,22.23
2022-11-16T19:09:30.234Z,22.90
2022-11-16T19:12:33.025Z,19.65
2022-11-16T19:15:36.641Z,23.58
2022-11-16T19:18:39.976Z,23.23
2022-11-16T19:21:42.959Z,19.50
2022-11-16T19:24:46.153Z,20.42
2022-11-16T19:27:48.868Z,20.20
2022-11-16T19:30:52.225Z,20.02
2022-11-16T19:34:05.955Z,19.67
2022-11-16T19:37:09.225Z,19.00
2022-11-16T19:40:13.084Z,19.02
2022-11-16T19:43:16.046Z,19.45
2022-11-16T19:46:23.615Z,20.20
2022-11-16T19:49:26.959Z,21.60
2022-11-16T19:52:30.119Z,22.87
2022-11-16T19:55:32.743Z,21.70
2022-11-16T19:58:37.476Z,19.27
2022-11-16T20:01:49.725Z,17.15
2022-11-16T20:04:53.906Z,18.40
2022-11-16T20:07:57.418Z,17.07
2022-11-16T20:11:00.689Z,17.80
2022-11-16T20:14:05.587Z,21.17
2022-11-16T20:17:08.586Z,16.73
2022-11-16T20:20:11.227Z,20.02
2022-11-16T20:23:16.143Z,18.17
2022-11-16T20:26:21.066Z,15.13
2022-11-16T20:29:24.636Z,16.55
2022-11-16T20:32:29.003Z,19.80
2022-11-16T20:35:33.314Z,16.85
2022-11-16T20:38:37.822Z,16.73
2022-11-16T20:41:40.866Z,14.07
2022-11-16T20:44:44.008Z,17.85
2022-11-16T20:47:46.919Z,19.52
2022-11-16T20:50:54.347Z,16.60
2022-11-16T20:53:57.399Z,18.77
2022-11-16T20:57:00.037Z,16.88
2022-11-16T21:00:05.644Z,14.85
2022-11-16T21:03:08.920Z,18.75
2022-11-16T21:06:13.467Z,17.70
2022-11-16T21:09:22.131Z,17.27
2022-11-16T21:12:43.355Z,16.25
2022-11-16T21:16:01.098Z,13.82
2022-11-16T21:19:04.352Z,16.27
2022-11-16T21:22:06.844Z,16.08
2022-11-16T21:25:09.640Z,15.63
2022-11-16T21:28:12.067Z,16.85
2022-11-16T21:31:19.799Z,16.10
2022-11-16T21:34:24.473Z,16.67
2022-11-16T21:37:26.966Z,16.50
2022-11-16T21:40:29.505Z,18.90
2022-11-16T21:43:37.271Z,15.98
2022-11-16T21:46:40.128Z,15.95
2022-11-16T21:50:00.838Z,15.07
2022-11-16T21:53:06.584Z,15.75
2022-11-16T21:56:13.855Z,17.50
2022-11-16T21:59:16.319Z,14.80
2022-11-16T22:02:18.932Z,20.42
2022-11-16T22:05:40.469Z,15.55
2022-11-16T22:08:43.439Z,15.30
2022-11-16T22:11:45.969Z,15.77
2022-11-16T22:14:48.409Z,14.43
2022-11-16T22:17:50.955Z,15.68
2022-11-16T22:20:53.399Z,15.02
2022-11-16T22:23:55.914Z,14.90
2022-11-16T22:26:58.476Z,15.10
2022-11-16T22:30:01.156Z,15.25
2022-11-16T22:33:03.703Z,16.40
2022-11-16T22:36:10.257Z,15.20
2022-11-16T22:39:12.870Z,15.93
2022-11-16T22:42:16.153Z,15.43
2022-11-16T22:45:18.599Z,16.30
2022-11-16T22:48:21.180Z,13.68
2022-11-16T22:51:28.538Z,15.95
2022-11-16T22:54:31.049Z,14.02
2022-11-16T22:57:33.528Z,16.23
2022-11-16T23:00:40.568Z,14.82
2022-11-16T23:03:44.683Z,13.98
2022-11-16T23:06:47.509Z,13.73
2022-11-16T23:09:50.019Z,14.10
2022-11-16T23:13:11.917Z,14.47
2022-11-16T23:16:14.713Z,14.27
2022-11-16T23:19:37.783Z,13.50
2022-11-16T23:23:08.516Z,13.77
2022-11-16T23:26:35.797Z,13.15
2022-11-16T23:29:38.275Z,15.27
2022-11-16T23:32:41.917Z,14.50
2022-11-16T23:35:44.398Z,13.07
2022-11-16T23:38:46.857Z,17.27
2022-11-16T23:42:08.128Z,13.85
2022-11-16T23:45:10.944Z,15.57
2022-11-16T23:48:15.963Z,13.32
2022-11-16T23:51:18.835Z,15.52
2022-11-16T23:54:21.536Z,12.68
2022-11-16T23:57:24.029Z,14.85
